createdAt,value
2022-09-21T00:03:30.522Z,7.80
2022-09-21T00:06:49.175Z,6.70
2022-09-21T00:10:15.680Z,8.00
2022-09-21T00:13:34.325Z,6.10
2022-09-21T00:31:05.245Z,5.50
2022-09-21T01:00:16.865Z,11.30
2022-09-21T01:04:04.574Z,10.80
2022-09-21T01:21:47.406Z,15.50
2022-09-21T01:25:07.102Z,15.20
2022-09-21T01:28:39.301Z,16.00
2022-09-21T01:50:13.519Z,18.60
2022-09-21T01:53:31.900Z,19.70
2022-09-21T01:57:05.481Z,20.10
2022-09-21T02:07:59.623Z,20.70
2022-09-21T02:11:40.132Z,21.30
2022-09-21T02:14:24.168Z,21.10
2022-09-21T02:17:56.555Z,21.80
2022-09-21T02:39:45.014Z,21.10
2022-09-21T02:43:23.846Z,18.90
2022-09-21T02:46:25.647Z,17.10
2022-09-21T02:49:45.872Z,18.80
2022-09-21T02:52:58.852Z,17.20
2022-09-21T03:16:03.563Z,17.00
2022-09-21T03:36:31.106Z,18.10
2022-09-21T03:40:11.371Z,19.80
2022-09-21T03:43:30.313Z,18.30
2022-09-21T04:01:00.342Z,19.00
2022-09-21T04:04:30.987Z,18.60
2022-09-21T04:07:33.291Z,17.90
2022-09-21T04:20:42.163Z,19.50
2022-09-21T04:23:50.850Z,19.00
2022-09-21T04:26:31.925Z,21.30
2022-09-21T04:29:05.493Z,21.20
2022-09-21T04:32:13.011Z,22.40
2022-09-21T04:35:46.263Z,20.50
2022-09-21T04:38:42.861Z,19.90
2022-09-21T04:41:32.495Z,18.40
2022-09-21T04:44:20.028Z,20.40
2022-09-21T04:47:23.576Z,19.90
2022-09-21T04:50:51.353Z,21.10
2022-09-21T04:53:52.996Z,19.70
2022-09-21T04:56:53.251Z,19.60
2022-09-21T05:00:08.814Z,19.40
2022-09-21T05:02:51.800Z,20.50
2022-09-21T05:30:02.299Z,20.30
2022-09-21T05:36:51.928Z,20.80
2022-09-21T05:39:25.404Z,20.90
2022-09-21T05:42:16.206Z,18.10
2022-09-21T05:45:06.956Z,17.80
2022-09-21T05:48:24.466Z,18.60
2022-09-21T05:51:47.511Z,18.00
2022-09-21T05:55:08.749Z,18.60
2022-09-21T05:58:27.141Z,20.40
2022-09-21T06:28:37.256Z,18.50
2022-09-21T06:32:25.252Z,17.60
2022-09-21T06:35:20.292Z,18.10
2022-09-21T06:38:17.497Z,17.90
2022-09-21T06:41:48.380Z,19.20
2022-09-21T06:55:46.477Z,19.10
2022-09-21T06:59:25.050Z,18.90
2022-09-21T07:16:07.574Z,16.70
2022-09-21T07:19:37.441Z,16.30
2022-09-21T07:36:34.227Z,13.30
2022-09-21T07:39:28.975Z,10.70
2022-09-21T07:42:38.761Z,9.80
2022-09-21T07:45:52.030Z,11.10
2022-09-21T07:48:45.497Z,10.70
2022-09-21T07:52:13.800Z,10.30
2022-09-21T07:55:36.530Z,12.40
2022-09-21T07:59:08.971Z,11.80
2022-09-21T08:02:47.973Z,12.20
2022-09-21T08:32:51.081Z,10.20
2022-09-21T08:35:42.176Z,10.20
2022-09-21T08:38:51.022Z,9.70
2022-09-21T08:42:24.326Z,11.90
2022-09-21T08:45:17.208Z,8.20
2022-09-21T08:48:37.318Z,9.00
2022-09-21T08:51:12.026Z,5.90
2022-09-21T08:54:28.206Z,7.00
2022-09-21T08:57:05.354Z,6.00
2022-09-21T08:59:43.838Z,5.60
2022-09-21T09:02:37.400Z,6.30
2022-09-21T09:20:13.119Z,5.80
2022-09-21T09:23:49.566Z,5.20
2022-09-21T09:27:15.240Z,5.00
2022-09-21T09:51:33.859Z,6.30
2022-09-21T09:54:37.790Z,6.00
2022-09-21T09:57:33.192Z,6.10
2022-09-21T10:01:15.103Z,7.60
2022-09-21T10:14:06.913Z,7.30
2022-09-21T10:41:01.534Z,7.00
2022-09-21T10:43:54.385Z,7.50
2022-09-21T10:49:42.566Z,9.40
2022-09-21T10:52:19.174Z,9.60
2022-09-21T10:54:57.418Z,10.90
2022-09-21T10:57:43.157Z,11.40
2022-09-21T11:01:17.365Z,11.90
2022-09-21T11:04:53.559Z,13.20
2022-09-21T11:21:43.697Z,12.80
2022-09-21T11:25:42.464Z,12.40
2022-09-21T11:29:11.895Z,13.50
2022-09-21T11:32:37.299Z,12.00
2022-09-21T11:35:59.142Z,11.30
2022-09-21T11:39:01.397Z,11.90
2022-09-21T12:04:22.131Z,10.00
2022-09-21T12:07:24.883Z,9.40
2022-09-21T12:10:49.576Z,9.60
2022-09-21T12:14:16.138Z,8.40
2022-09-21T12:17:13.239Z,8.90
2022-09-21T12:41:55.088Z,7.60
2022-09-21T12:44:35.762Z,6.30
2022-09-21T12:47:32.303Z,5.40
2022-09-21T12:50:48.618Z,4.30
2022-09-21T12:53:32.409Z,4.30
2022-09-21T12:56:30.748Z,4.10
2022-09-21T13:00:14.913Z,3.40
2022-09-21T13:24:33.053Z,3.60
2022-09-21T13:27:08.346Z,3.30
2022-09-21T13:30:40.618Z,3.40
2022-09-21T13:34:02.478Z,2.90
2022-09-21T13:36:38.232Z,2.60
2022-09-21T13:39:40.987Z,2.70
2022-09-21T13:42:36.392Z,2.80
2022-09-21T14:07:28.062Z,1.30
2022-09-21T14:10:32.374Z,1.10
2022-09-21T14:13:47.336Z,1.40
2022-09-21T14:47:21.924Z,1.60
2022-09-21T14:50:23.554Z,2.50
2022-09-21T14:54:23.496Z,2.20
2022-09-21T14:57:52.286Z,2.70
2022-09-21T15:25:48.457Z,3.90
2022-09-21T15:29:18.246Z,3.90
2022-09-21T15:32:01.220Z,3.40
2022-09-21T15:35:52.168Z,3.50
2022-09-21T16:01:48.101Z,2.00
2022-09-21T16:05:21.239Z,3.40
2022-09-21T16:26:40.725Z,1.20
2022-09-21T16:29:38.869Z,1.50
2022-09-21T16:32:48.692Z,1.50
2022-09-21T16:35:52.009Z,2.20
2022-09-21T16:39:14.984Z,2.10
2022-09-21T16:42:47.401Z,2.00
2022-09-21T17:03:36.412Z,9.60
2022-09-21T17:07:17.380Z,7.60
2022-09-21T17:32:07.743Z,13.40
2022-09-21T17:35:22.575Z,14.00
2022-09-21T17:39:00.758Z,11.90
2022-09-21T17:42:27.524Z,11.40
2022-09-21T17:45:50.435Z,10.70
2022-09-21T18:06:34.066Z,10.60
2022-09-21T18:10:04.465Z,9.60
2022-09-21T18:28:10.789Z,12.40
2022-09-21T18:31:38.194Z,12.00
2022-09-21T18:35:29.555Z,12.20
2022-09-21T18:51:09.196Z,13.70
2022-09-21T19:13:07.986Z,20.10
2022-09-21T19:16:50.870Z,18.30
2022-09-21T19:20:32.209Z,19.10
2022-09-21T19:36:10.235Z,18.40
2022-09-21T19:40:01.997Z,16.40
2022-09-21T19:55:12.295Z,17.20
2022-09-21T19:58:59.474Z,18.60
2022-09-21T20:15:10.450Z,15.20
2022-09-21T20:19:07.438Z,13.10
2022-09-21T20:34:41.882Z,11.20
2022-09-21T20:38:22.488Z,10.20
2022-09-21T20:42:09.374Z,11.30
2022-09-21T20:53:17.273Z,10.80
2022-09-21T20:56:31.075Z,9.80
2022-09-21T20:59:52.004Z,9.70
2022-09-21T21:03:11.395Z,9.40
2022-09-21T21:30:15.878Z,10.20
2022-09-21T21:33:43.880Z,9.70
2022-09-21T21:37:15.863Z,8.70
2022-09-21T21:51:14.673Z,10.50
2022-09-21T21:54:25.233Z,10.30
2022-09-21T21:57:29.109Z,10.40
2022-09-21T22:00:39.525Z,9.60
2022-09-21T22:17:02.453Z,9.90
2022-09-21T22:20:41.298Z,9.90
2022-09-21T22:23:46.623Z,10.70
2022-09-21T22:27:42.581Z,9.10
2022-09-21T22:41:04.894Z,13.20
2022-09-21T22:44:26.336Z,12.90
2022-09-21T22:48:14.257Z,14.60
2022-09-21T23:01:57.905Z,18.40
2022-09-21T23:05:45.824Z,17.40
2022-09-21T23:30:21.601Z,16.10
2022-09-21T23:33:07.737Z,16.20
2022-09-21T23:40:01.151Z,14.20
